createdAt,value
2018-05-04T00:00:27.530Z,984.11
2018-05-04T00:01:27.473Z,984.16
2018-05-04T00:02:27.418Z,984.16
2018-05-04T00:03:27.364Z,984.14
2018-05-04T00:04:27.311Z,984.17
2018-05-04T00:05:27.254Z,984.19
2018-05-04T00:06:27.199Z,984.18
2018-05-04T00:07:27.144Z,984.18
2018-05-04T00:08:27.088Z,984.15
2018-05-04T00:09:27.033Z,984.15
2018-05-04T00:10:26.978Z,984.16
2018-05-04T00:11:26.924Z,984.09
2018-05-04T00:12:26.868Z,984.11
2018-05-04T00:13:26.813Z,984.11
2018-05-04T00:14:26.762Z,984.08
2018-05-04T00:15:26.702Z,984.08
2018-05-04T00:16:26.648Z,984.03
2018-05-04T00:17:26.594Z,984.06
2018-05-04T00:18:26.538Z,983.94
2018-05-04T00:19:26.483Z,983.96
2018-05-04T00:20:26.435Z,983.94
2018-05-04T00:21:26.373Z,983.99
2018-05-04T00:22:26.317Z,983.91
2018-05-04T00:23:26.266Z,983.94
2018-05-04T00:24:26.207Z,983.97
2018-05-04T00:25:26.151Z,983.94
2018-05-04T00:26:26.096Z,983.93
2018-05-04T00:27:26.041Z,983.96
2018-05-04T00:28:25.994Z,983.95
2018-05-04T00:29:25.932Z,983.93
2018-05-04T00:30:25.877Z,983.87
2018-05-04T00:31:25.823Z,983.79
2018-05-04T00:32:25.766Z,983.80
2018-05-04T00:33:25.712Z,983.80
2018-05-04T00:34:25.659Z,983.77
2018-05-04T00:35:25.602Z,983.78
2018-05-04T00:36:25.546Z,983.75
2018-05-04T00:37:25.489Z,983.81
2018-05-04T00:38:25.436Z,983.80
2018-05-04T00:39:25.380Z,983.81
2018-05-04T00:40:25.327Z,983.80
2018-05-04T00:41:25.271Z,983.77
2018-05-04T00:42:25.214Z,983.77
2018-05-04T00:43:25.159Z,983.76
2018-05-04T00:44:25.103Z,983.71
2018-05-04T00:45:25.048Z,983.70
2018-05-04T00:46:24.994Z,983.70
2018-05-04T00:47:24.937Z,983.69
2018-05-04T00:48:24.883Z,983.69
2018-05-04T00:49:24.828Z,983.64
2018-05-04T00:50:24.773Z,983.69
2018-05-04T00:51:24.716Z,983.71
2018-05-04T00:52:24.663Z,983.75
2018-05-04T00:53:24.605Z,983.75
2018-05-04T00:54:24.554Z,983.77
2018-05-04T00:55:24.497Z,983.79
2018-05-04T00:56:24.440Z,983.76
2018-05-04T00:57:24.384Z,983.73
2018-05-04T00:58:24.329Z,983.72
2018-05-04T00:59:24.274Z,983.72
2018-05-04T01:00:24.218Z,983.70
2018-05-04T01:01:24.162Z,983.72
2018-05-04T01:02:24.107Z,983.74
2018-05-04T01:03:24.053Z,983.75
2018-05-04T01:04:23.997Z,983.76
2018-05-04T01:05:23.940Z,983.74
2018-05-04T01:06:23.884Z,983.73
2018-05-04T01:07:23.830Z,983.74
2018-05-04T01:08:23.776Z,983.81
2018-05-04T01:09:23.719Z,983.85
2018-05-04T01:10:23.664Z,983.81
2018-05-04T01:11:23.610Z,983.85
2018-05-04T01:12:23.553Z,983.85
2018-05-04T01:13:23.496Z,983.90
2018-05-04T01:14:23.444Z,983.90
2018-05-04T01:15:23.387Z,983.87
2018-05-04T01:16:23.334Z,983.90
2018-05-04T01:17:23.307Z,983.92
2018-05-04T01:18:23.286Z,983.94
2018-05-04T01:19:23.167Z,983.94
2018-05-04T01:20:23.109Z,983.99
2018-05-04T01:21:23.052Z,983.98
2018-05-04T01:22:22.999Z,984.02
2018-05-04T01:23:22.944Z,983.98
2018-05-04T01:24:22.888Z,983.94
2018-05-04T01:25:22.833Z,983.99
2018-05-04T01:26:22.780Z,983.98
2018-05-04T01:27:22.720Z,983.99
2018-05-04T01:28:22.668Z,983.97
2018-05-04T01:29:22.608Z,983.93
2018-05-04T01:30:22.553Z,984.01
2018-05-04T01:31:22.497Z,983.97
2018-05-04T01:32:22.442Z,983.94
2018-05-04T01:33:22.386Z,983.94
2018-05-04T01:34:22.330Z,983.93
2018-05-04T01:35:22.279Z,983.93
2018-05-04T01:36:22.218Z,983.95
2018-05-04T01:37:22.166Z,983.95
2018-05-04T01:38:22.106Z,983.99
2018-05-04T01:39:22.051Z,983.96
2018-05-04T01:40:21.995Z,984.00
2018-05-04T01:41:21.947Z,983.98
2018-05-04T01:42:21.887Z,984.06
2018-05-04T01:43:21.827Z,984.00
2018-05-04T01:44:21.773Z,984.05
2018-05-04T01:45:21.717Z,984.03
2018-05-04T01:46:21.660Z,984.07
2018-05-04T01:47:21.607Z,984.03
2018-05-04T01:48:21.549Z,983.97
2018-05-04T01:49:21.494Z,984.03
2018-05-04T01:50:21.440Z,983.98
2018-05-04T01:51:21.381Z,984.06
2018-05-04T01:52:21.325Z,984.01
2018-05-04T01:53:21.269Z,984.05
2018-05-04T01:54:21.222Z,984.08
2018-05-04T01:55:21.158Z,984.07
2018-05-04T01:56:21.103Z,984.14
2018-05-04T01:57:21.046Z,984.12
2018-05-04T01:58:20.990Z,984.20
2018-05-04T01:59:20.937Z,984.24
2018-05-04T02:00:20.879Z,984.22
2018-05-04T02:01:20.823Z,984.12
2018-05-04T02:02:20.769Z,984.18
2018-05-04T02:03:20.713Z,984.15
2018-05-04T02:04:20.657Z,984.17
2018-05-04T02:05:20.600Z,984.20
2018-05-04T02:06:20.545Z,984.13
2018-05-04T02:07:20.487Z,984.18
2018-05-04T02:08:20.433Z,984.18
2018-05-04T02:09:20.376Z,984.16
2018-05-04T02:10:20.320Z,984.15
2018-05-04T02:11:20.265Z,984.14
2018-05-04T02:12:20.209Z,984.19
2018-05-04T02:13:20.153Z,984.12
2018-05-04T02:14:20.098Z,984.17
2018-05-04T02:15:20.041Z,984.08
2018-05-04T02:16:19.990Z,984.09
2018-05-04T02:17:19.931Z,984.09
2018-05-04T02:18:19.883Z,984.09
2018-05-04T02:19:19.818Z,984.09
2018-05-04T02:20:19.763Z,984.06
2018-05-04T02:21:19.706Z,984.08
2018-05-04T02:22:19.654Z,984.04
2018-05-04T02:23:19.595Z,984.08
2018-05-04T02:24:19.539Z,984.03
2018-05-04T02:25:19.482Z,984.06
2018-05-04T02:26:19.429Z,984.07
2018-05-04T02:27:19.379Z,984.05
2018-05-04T02:28:19.386Z,984.04
2018-05-04T02:29:19.258Z,984.06
2018-05-04T02:30:19.211Z,984.04
2018-05-04T02:31:19.149Z,984.01
2018-05-04T02:32:19.093Z,984.00
2018-05-04T02:33:19.035Z,984.01
2018-05-04T02:34:18.985Z,984.06
2018-05-04T02:35:18.924Z,984.08
2018-05-04T02:36:18.869Z,984.06
2018-05-04T02:37:18.816Z,984.05
2018-05-04T02:38:18.756Z,984.06
2018-05-04T02:39:18.698Z,984.07
2018-05-04T02:40:18.645Z,984.07
2018-05-04T02:41:18.586Z,984.10
2018-05-04T02:42:18.533Z,984.06
2018-05-04T02:43:18.475Z,984.14
2018-05-04T02:44:18.421Z,984.20
2018-05-04T02:45:18.363Z,984.20
2018-05-04T02:46:18.312Z,984.19
2018-05-04T02:47:18.257Z,984.25
2018-05-04T02:48:18.196Z,984.25
2018-05-04T02:49:18.138Z,984.21
2018-05-04T02:50:18.083Z,984.25
2018-05-04T02:51:18.029Z,984.23
2018-05-04T02:52:17.971Z,984.21
2018-05-04T02:53:17.914Z,984.24
2018-05-04T02:54:17.862Z,984.25
2018-05-04T02:55:17.806Z,984.22
2018-05-04T02:56:17.759Z,984.22
2018-05-04T02:57:17.693Z,984.21
2018-05-04T02:58:17.634Z,984.25
2018-05-04T02:59:17.579Z,984.29
2018-05-04T03:00:17.527Z,984.24
2018-05-04T03:01:17.468Z,984.27
2018-05-04T03:02:17.411Z,984.23
2018-05-04T03:03:17.357Z,984.24
2018-05-04T03:04:17.299Z,984.22
2018-05-04T03:05:17.243Z,984.20
2018-05-04T03:06:17.187Z,984.18
2018-05-04T03:07:17.134Z,984.19
2018-05-04T03:08:17.077Z,984.22
2018-05-04T03:09:17.021Z,984.16
2018-05-04T03:10:16.963Z,984.15
2018-05-04T03:11:16.908Z,984.15
2018-05-04T03:12:16.852Z,984.13
2018-05-04T03:13:16.795Z,984.18
2018-05-04T03:14:16.744Z,984.16
2018-05-04T03:15:16.684Z,984.17
2018-05-04T03:16:16.629Z,984.20
2018-05-04T03:17:16.570Z,984.17
2018-05-04T03:18:16.515Z,984.15
2018-05-04T03:19:16.459Z,984.22
2018-05-04T03:20:16.403Z,984.19
2018-05-04T03:21:16.348Z,984.17
2018-05-04T03:22:16.294Z,984.21
2018-05-04T03:23:16.241Z,984.17
2018-05-04T03:24:16.180Z,984.21
2018-05-04T03:25:16.127Z,984.25
2018-05-04T03:26:16.066Z,984.25
2018-05-04T03:27:16.012Z,984.28
2018-05-04T03:28:15.956Z,984.26
2018-05-04T03:29:15.900Z,984.33
2018-05-04T03:30:15.850Z,984.33
2018-05-04T03:31:15.791Z,984.31
2018-05-04T03:32:15.731Z,984.34
2018-05-04T03:33:15.675Z,984.38
2018-05-04T03:34:15.619Z,984.37
2018-05-04T03:35:15.566Z,984.34
2018-05-04T03:36:15.507Z,984.37
2018-05-04T03:37:15.451Z,984.36
2018-05-04T03:38:15.395Z,984.35
2018-05-04T03:39:15.338Z,984.40
2018-05-04T03:40:15.286Z,984.41
2018-05-04T03:41:15.227Z,984.38
2018-05-04T03:42:15.172Z,984.38
2018-05-04T03:43:15.115Z,984.40
2018-05-04T03:44:15.058Z,984.42
2018-05-04T03:45:15.001Z,984.43
2018-05-04T03:46:14.945Z,984.43
2018-05-04T03:47:14.890Z,984.45
2018-05-04T03:48:14.837Z,984.46
2018-05-04T03:49:14.785Z,984.51
2018-05-04T03:50:14.724Z,984.44
2018-05-04T03:51:14.666Z,984.43
2018-05-04T03:52:14.610Z,984.42
2018-05-04T03:53:14.554Z,984.48
2018-05-04T03:54:14.505Z,984.48
2018-05-04T03:55:14.442Z,984.41
2018-05-04T03:56:14.388Z,984.49
2018-05-04T03:57:14.334Z,984.48
2018-05-04T03:58:14.277Z,984.46
2018-05-04T03:59:14.218Z,984.46
2018-05-04T04:00:14.170Z,984.47
2018-05-04T04:01:14.110Z,984.45
2018-05-04T04:02:14.052Z,984.54
2018-05-04T04:03:14.092Z,984.52
2018-05-04T04:04:13.940Z,984.53
2018-05-04T04:05:13.883Z,984.52
2018-05-04T04:06:13.827Z,984.53
2018-05-04T04:07:13.772Z,984.53
2018-05-04T04:08:13.717Z,984.55
2018-05-04T04:09:13.661Z,984.52
2018-05-04T04:10:13.602Z,984.53
2018-05-04T04:11:13.546Z,984.51
2018-05-04T04:12:13.491Z,984.52
2018-05-04T04:13:13.435Z,984.53
2018-05-04T04:14:13.377Z,984.58
2018-05-04T04:15:13.321Z,984.52
2018-05-04T04:16:13.270Z,984.61
2018-05-04T04:17:13.209Z,984.58
2018-05-04T04:18:13.155Z,984.62
2018-05-04T04:19:13.098Z,984.62
2018-05-04T04:20:13.041Z,984.60
2018-05-04T04:21:12.984Z,984.62
2018-05-04T04:22:12.928Z,984.61
2018-05-04T04:23:12.877Z,984.61
2018-05-04T04:24:12.815Z,984.60
2018-05-04T04:25:12.767Z,984.64
2018-05-04T04:26:12.705Z,984.61
2018-05-04T04:27:12.654Z,984.63
2018-05-04T04:28:12.597Z,984.64
2018-05-04T04:29:12.537Z,984.63
2018-05-04T04:30:12.480Z,984.62
2018-05-04T04:31:12.428Z,984.63
2018-05-04T04:32:12.368Z,984.67
2018-05-04T04:33:12.310Z,984.68
2018-05-04T04:34:12.257Z,984.66
2018-05-04T04:35:12.201Z,984.70
2018-05-04T04:36:12.145Z,984.65
2018-05-04T04:37:12.088Z,984.66
2018-05-04T04:38:12.032Z,984.68
2018-05-04T04:39:11.976Z,984.65
2018-05-04T04:40:11.919Z,984.70
2018-05-04T04:41:11.863Z,984.68
2018-05-04T04:42:11.807Z,984.66
2018-05-04T04:43:11.751Z,984.70
2018-05-04T04:44:11.695Z,984.68
2018-05-04T04:45:11.649Z,984.71
2018-05-04T04:46:11.593Z,984.68
2018-05-04T04:47:11.527Z,984.68
2018-05-04T04:48:11.471Z,984.65
2018-05-04T04:49:11.413Z,984.65
2018-05-04T04:50:11.359Z,984.65
2018-05-04T04:51:11.300Z,984.67
2018-05-04T04:52:11.244Z,984.70
2018-05-04T04:53:11.190Z,984.67
2018-05-04T04:54:11.135Z,984.70
2018-05-04T04:55:11.076Z,984.74
2018-05-04T04:56:11.021Z,984.73
2018-05-04T04:57:10.963Z,984.71
2018-05-04T04:58:10.908Z,984.69
2018-05-04T04:59:10.854Z,984.65
2018-05-04T05:00:10.796Z,984.63
2018-05-04T05:01:10.739Z,984.63
2018-05-04T05:02:10.682Z,984.65
2018-05-04T05:03:10.625Z,984.62
2018-05-04T05:04:10.571Z,984.65
2018-05-04T05:05:10.516Z,984.66
2018-05-04T05:06:10.459Z,984.68
2018-05-04T05:07:10.403Z,984.66
2018-05-04T05:08:10.347Z,984.67
2018-05-04T05:09:10.288Z,984.70
2018-05-04T05:10:10.233Z,984.69
2018-05-04T05:11:10.176Z,984.71
2018-05-04T05:12:10.120Z,984.72
2018-05-04T05:13:10.067Z,984.76
2018-05-04T05:14:10.007Z,984.70
2018-05-04T05:15:09.953Z,984.72
2018-05-04T05:16:09.895Z,984.70
2018-05-04T05:17:09.838Z,984.73
2018-05-04T05:18:09.782Z,984.69
2018-05-04T05:19:09.726Z,984.71
2018-05-04T05:20:09.671Z,984.72
2018-05-04T05:21:09.615Z,984.71
2018-05-04T05:22:09.558Z,984.67
2018-05-04T05:23:09.502Z,984.71
2018-05-04T05:24:09.447Z,984.67
2018-05-04T05:25:09.391Z,984.68
2018-05-04T05:26:09.333Z,984.66
2018-05-04T05:27:09.277Z,984.70
2018-05-04T05:28:09.222Z,984.68
2018-05-04T05:29:09.166Z,984.71
2018-05-04T05:30:09.110Z,984.68
2018-05-04T05:31:09.054Z,984.69
2018-05-04T05:32:08.998Z,984.66
2018-05-04T05:33:08.941Z,984.66
2018-05-04T05:34:08.891Z,984.70
2018-05-04T05:35:08.831Z,984.64
2018-05-04T05:36:08.774Z,984.59
2018-05-04T05:37:08.721Z,984.58
2018-05-04T05:38:08.663Z,984.55
2018-05-04T05:39:08.605Z,984.49
2018-05-04T05:40:08.550Z,984.55
2018-05-04T05:41:08.495Z,984.49
2018-05-04T05:42:08.438Z,984.53
2018-05-04T05:43:08.384Z,984.47
2018-05-04T05:44:08.325Z,984.45
2018-05-04T05:45:08.281Z,984.44
2018-05-04T05:46:08.216Z,984.47
2018-05-04T05:47:08.160Z,984.48
2018-05-04T05:48:08.102Z,984.43
2018-05-04T05:49:08.047Z,984.46
2018-05-04T05:50:07.990Z,984.53
2018-05-04T05:51:07.935Z,984.61
2018-05-04T05:52:07.880Z,984.54
2018-05-04T05:53:07.824Z,984.58
2018-05-04T05:54:07.768Z,984.61
2018-05-04T05:55:07.711Z,984.62
2018-05-04T05:56:07.655Z,984.63
2018-05-04T05:57:07.598Z,984.68
2018-05-04T05:58:07.623Z,984.63
2018-05-04T05:59:07.495Z,984.61
2018-05-04T06:00:07.435Z,984.65
2018-05-04T06:01:07.375Z,984.67
2018-05-04T06:02:07.318Z,984.67
2018-05-04T06:03:07.263Z,984.70
2018-05-04T06:04:07.280Z,984.74
2018-05-04T06:05:07.156Z,984.75
2018-05-04T06:06:07.098Z,984.75
2018-05-04T06:07:07.040Z,984.80
2018-05-04T06:08:06.984Z,984.80
2018-05-04T06:09:06.930Z,984.81
2018-05-04T06:10:06.873Z,984.87
2018-05-04T06:11:06.820Z,984.89
2018-05-04T06:12:06.762Z,984.85
2018-05-04T06:13:06.706Z,984.86
2018-05-04T06:14:06.654Z,984.94
2018-05-04T06:15:06.676Z,984.93
2018-05-04T06:16:06.541Z,984.90
2018-05-04T06:17:06.486Z,984.97
2018-05-04T06:18:06.428Z,984.96
2018-05-04T06:19:06.379Z,984.94
2018-05-04T06:20:06.317Z,984.97
2018-05-04T06:21:06.261Z,984.91
2018-05-04T06:22:06.213Z,984.96
2018-05-04T06:23:06.153Z,984.86
2018-05-04T06:24:06.099Z,984.91
2018-05-04T06:25:06.058Z,984.90
2018-05-04T06:26:05.985Z,984.82
2018-05-04T06:27:05.928Z,984.85
2018-05-04T06:28:05.876Z,984.89
2018-05-04T06:29:05.818Z,984.93
2018-05-04T06:30:05.763Z,984.90
2018-05-04T06:31:05.706Z,984.91
2018-05-04T06:32:05.650Z,984.90
2018-05-04T06:33:05.593Z,984.89
2018-05-04T06:34:05.538Z,984.90
2018-05-04T06:35:05.486Z,984.91
2018-05-04T06:36:05.427Z,984.88
2018-05-04T06:37:05.370Z,984.89
2018-05-04T06:38:05.316Z,984.90
2018-05-04T06:39:05.260Z,984.87
2018-05-04T06:40:05.206Z,984.86
2018-05-04T06:41:05.152Z,984.86
2018-05-04T06:42:05.094Z,984.88
2018-05-04T06:43:05.038Z,984.90
2018-05-04T06:44:05.001Z,984.91
2018-05-04T06:45:04.927Z,984.86
2018-05-04T06:46:04.873Z,984.83
2018-05-04T06:47:04.819Z,984.88
2018-05-04T06:48:04.767Z,984.89
2018-05-04T06:49:04.707Z,984.88
2018-05-04T06:50:04.651Z,984.87
2018-05-04T06:51:04.597Z,984.86
2018-05-04T06:52:04.543Z,984.81
2018-05-04T06:53:04.487Z,984.78
2018-05-04T06:54:04.430Z,984.78
2018-05-04T06:55:04.374Z,984.75
2018-05-04T06:56:04.319Z,984.76
2018-05-04T06:57:04.263Z,984.77
2018-05-04T06:58:04.211Z,984.84
2018-05-04T06:59:04.153Z,984.88
2018-05-04T07:00:04.102Z,984.95
2018-05-04T07:01:04.044Z,984.94
2018-05-04T07:02:03.988Z,984.93
2018-05-04T07:03:03.933Z,984.90
2018-05-04T07:04:03.880Z,984.84
2018-05-04T07:05:03.824Z,984.84
2018-05-04T07:06:03.766Z,984.93
2018-05-04T07:07:03.712Z,984.95
2018-05-04T07:08:03.658Z,984.91
2018-05-04T07:09:03.819Z,984.91
2018-05-04T07:10:03.552Z,984.95
2018-05-04T07:11:03.496Z,984.92
2018-05-04T07:12:03.441Z,984.95
2018-05-04T07:13:03.385Z,984.93
2018-05-04T07:14:03.333Z,984.92
2018-05-04T07:15:03.328Z,984.97
2018-05-04T07:16:03.224Z,984.98
2018-05-04T07:17:03.169Z,985.06
2018-05-04T07:18:03.113Z,985.02
2018-05-04T07:19:03.061Z,985.07
2018-05-04T07:20:03.006Z,985.00
2018-05-04T07:21:02.952Z,985.01
2018-05-04T07:22:02.968Z,985.00
2018-05-04T07:23:02.845Z,985.00
2018-05-04T07:24:02.793Z,984.99
2018-05-04T07:25:02.737Z,985.01
2018-05-04T07:26:02.682Z,985.00
2018-05-04T07:27:02.631Z,985.01
2018-05-04T07:28:02.581Z,985.04
2018-05-04T07:29:02.519Z,985.00
2018-05-04T07:30:02.467Z,984.95
2018-05-04T07:31:02.413Z,984.94
2018-05-04T07:32:02.360Z,984.94
2018-05-04T07:33:02.307Z,984.92
2018-05-04T07:34:02.251Z,984.92
2018-05-04T07:35:02.198Z,984.92
2018-05-04T07:36:02.181Z,984.99
2018-05-04T07:37:02.166Z,984.95
2018-05-04T07:38:02.035Z,985.00
2018-05-04T07:39:01.982Z,984.90
2018-05-04T07:40:01.929Z,984.96
2018-05-04T07:41:01.877Z,984.99
2018-05-04T07:42:01.851Z,984.96
2018-05-04T07:43:01.779Z,984.98
2018-05-04T07:44:01.714Z,985.01
2018-05-04T07:45:01.662Z,985.01
2018-05-04T07:46:01.603Z,985.10
2018-05-04T07:47:01.550Z,985.07
2018-05-04T07:48:01.499Z,985.07
2018-05-04T07:49:01.500Z,985.06
2018-05-04T07:50:01.420Z,985.07
2018-05-04T07:51:01.341Z,985.04
2018-05-04T07:52:01.284Z,985.07
2018-05-04T07:53:01.230Z,984.98
2018-05-04T07:54:01.176Z,985.03
2018-05-04T07:55:01.119Z,984.96
2018-05-04T07:56:01.065Z,984.96
2018-05-04T07:57:01.011Z,984.94
2018-05-04T07:58:00.958Z,984.95
2018-05-04T07:59:00.905Z,984.95
2018-05-04T08:00:00.849Z,984.95
2018-05-04T08:01:00.796Z,984.98
2018-05-04T08:02:00.750Z,984.98
2018-05-04T08:03:00.718Z,984.98
2018-05-04T08:04:00.634Z,985.05
2018-05-04T08:05:00.584Z,985.09
2018-05-04T08:06:00.527Z,985.09
2018-05-04T08:07:00.474Z,985.09
2018-05-04T08:08:00.418Z,985.08
2018-05-04T08:09:00.364Z,985.13
2018-05-04T08:10:00.309Z,985.13
2018-05-04T08:11:00.256Z,985.17
2018-05-04T08:12:00.203Z,985.13
2018-05-04T08:13:00.150Z,985.11
2018-05-04T08:14:00.095Z,985.10
2018-05-04T08:15:00.046Z,985.13
2018-05-04T08:15:59.988Z,985.15
2018-05-04T08:16:59.934Z,985.15
2018-05-04T08:17:59.886Z,985.11
2018-05-04T08:18:59.828Z,985.18
2018-05-04T08:19:59.787Z,985.18
2018-05-04T08:20:59.725Z,985.20
2018-05-04T08:21:59.668Z,985.19
2018-05-04T08:22:59.616Z,985.15
2018-05-04T08:23:59.563Z,985.11
2018-05-04T08:24:59.508Z,985.13
2018-05-04T08:25:59.457Z,985.11
2018-05-04T08:26:59.406Z,985.13
2018-05-04T08:27:59.351Z,985.05
2018-05-04T08:28:59.296Z,985.08
2018-05-04T08:29:59.244Z,985.14
2018-05-04T08:30:59.266Z,985.14
2018-05-04T08:31:59.143Z,985.09
2018-05-04T08:32:59.087Z,985.07
2018-05-04T08:33:59.033Z,985.14
2018-05-04T08:34:58.981Z,985.17
2018-05-04T08:35:58.930Z,985.18
2018-05-04T08:36:58.875Z,985.11
2018-05-04T08:37:58.838Z,985.08
2018-05-04T08:38:58.808Z,985.05
2018-05-04T08:39:58.720Z,985.04
2018-05-04T08:40:58.719Z,985.02
2018-05-04T08:41:58.613Z,985.03
2018-05-04T08:42:58.654Z,984.94
2018-05-04T08:43:58.507Z,984.95
2018-05-04T08:44:58.455Z,984.94
2018-05-04T08:45:58.404Z,984.97
2018-05-04T08:46:58.350Z,984.94
2018-05-04T08:47:58.298Z,984.97
2018-05-04T08:48:58.252Z,984.96
2018-05-04T08:49:58.193Z,984.90
2018-05-04T08:50:58.215Z,984.97
2018-05-04T08:51:58.088Z,984.87
2018-05-04T08:52:58.036Z,984.86
2018-05-04T08:53:57.984Z,984.89
2018-05-04T08:54:57.932Z,984.88
2018-05-04T08:55:57.878Z,984.88
2018-05-04T08:56:57.828Z,984.90
2018-05-04T08:57:57.775Z,984.88
2018-05-04T08:58:57.721Z,984.92
2018-05-04T08:59:57.670Z,984.89
2018-05-04T09:00:57.617Z,984.90
2018-05-04T09:01:57.575Z,984.93
2018-05-04T09:02:57.514Z,984.81
2018-05-04T09:03:57.461Z,984.83
2018-05-04T09:04:57.407Z,984.87
2018-05-04T09:05:57.355Z,984.92
2018-05-04T09:06:57.302Z,984.91
2018-05-04T09:07:57.251Z,984.90
2018-05-04T09:08:57.200Z,984.93
2018-05-04T09:09:57.147Z,984.92
2018-05-04T09:10:57.093Z,984.98
2018-05-04T09:11:57.041Z,984.96
2018-05-04T09:12:56.998Z,984.96
2018-05-04T09:13:56.937Z,984.98
2018-05-04T09:14:56.884Z,984.99
2018-05-04T09:15:56.833Z,985.00
2018-05-04T09:16:56.784Z,984.99
2018-05-04T09:17:56.732Z,984.91
2018-05-04T09:18:56.677Z,984.98
2018-05-04T09:19:56.643Z,984.94
2018-05-04T09:20:56.573Z,984.93
2018-05-04T09:21:56.520Z,984.95
2018-05-04T09:22:56.469Z,984.91
2018-05-04T09:23:56.421Z,984.90
2018-05-04T09:24:56.365Z,984.91
2018-05-04T09:25:56.315Z,984.93
2018-05-04T09:26:56.262Z,984.90
2018-05-04T09:27:56.209Z,984.94
2018-05-04T09:28:56.159Z,984.86
2018-05-04T09:29:56.108Z,984.88
2018-05-04T09:30:56.103Z,984.90
2018-05-04T09:31:56.005Z,984.85
2018-05-04T09:32:55.953Z,984.84
2018-05-04T09:33:55.903Z,984.85
2018-05-04T09:34:55.851Z,984.85
2018-05-04T09:35:55.799Z,984.95
2018-05-04T09:36:55.747Z,984.88
2018-05-04T09:37:55.697Z,984.88
2018-05-04T09:38:55.650Z,984.85
2018-05-04T09:39:55.596Z,984.82
2018-05-04T09:40:55.545Z,984.91
2018-05-04T09:41:55.492Z,984.91
2018-05-04T09:42:55.440Z,984.97
2018-05-04T09:43:55.390Z,984.97
2018-05-04T09:44:55.339Z,984.97
2018-05-04T09:45:55.287Z,984.92
2018-05-04T09:46:55.237Z,984.92
2018-05-04T09:47:55.188Z,984.91
2018-05-04T09:48:55.234Z,984.90
2018-05-04T09:49:55.085Z,984.88
2018-05-04T09:50:55.038Z,984.88
2018-05-04T09:51:54.983Z,984.84
2018-05-04T09:52:54.933Z,984.87
2018-05-04T09:53:54.882Z,984.89
2018-05-04T09:54:54.834Z,984.90
2018-05-04T09:55:54.795Z,984.89
2018-05-04T09:56:54.731Z,984.85
2018-05-04T09:57:54.678Z,984.82
2018-05-04T09:58:54.627Z,984.85
2018-05-04T09:59:54.578Z,984.86
2018-05-04T10:00:54.527Z,984.80
2018-05-04T10:01:54.476Z,984.79
2018-05-04T10:02:54.426Z,984.81
2018-05-04T10:03:54.377Z,984.83
2018-05-04T10:04:54.326Z,984.80
2018-05-04T10:05:54.273Z,984.77
2018-05-04T10:06:54.223Z,984.79
2018-05-04T10:07:54.171Z,984.76
2018-05-04T10:08:54.120Z,984.75
2018-05-04T10:09:54.069Z,984.73
2018-05-04T10:10:54.018Z,984.73
2018-05-04T10:11:53.968Z,984.76
2018-05-04T10:12:53.916Z,984.68
2018-05-04T10:13:53.865Z,984.68
2018-05-04T10:14:53.814Z,984.63
2018-05-04T10:15:53.764Z,984.68
2018-05-04T10:16:53.712Z,984.72
2018-05-04T10:17:53.663Z,984.66
2018-05-04T10:18:53.612Z,984.63
2018-05-04T10:19:53.564Z,984.62
2018-05-04T10:20:53.509Z,984.61
2018-05-04T10:21:53.500Z,984.63
2018-05-04T10:22:53.408Z,984.59
2018-05-04T10:23:53.359Z,984.60
2018-05-04T10:24:53.308Z,984.55
2018-05-04T10:25:53.259Z,984.59
2018-05-04T10:26:53.208Z,984.59
2018-05-04T10:27:53.161Z,984.63
2018-05-04T10:28:53.106Z,984.61
2018-05-04T10:29:53.057Z,984.63
2018-05-04T10:30:53.096Z,984.65
2018-05-04T10:31:52.956Z,984.66
2018-05-04T10:32:52.912Z,984.63
2018-05-04T10:33:52.865Z,984.58
2018-05-04T10:34:52.807Z,984.58
2018-05-04T10:35:52.760Z,984.56
2018-05-04T10:36:52.706Z,984.60
2018-05-04T10:37:52.658Z,984.54
2018-05-04T10:38:52.630Z,984.56
2018-05-04T10:39:52.555Z,984.59
2018-05-04T10:40:52.505Z,984.61
2018-05-04T10:41:52.458Z,984.55
2018-05-04T10:42:52.407Z,984.53
2018-05-04T10:43:52.358Z,984.54
2018-05-04T10:44:52.307Z,984.47
2018-05-04T10:45:52.256Z,984.50
2018-05-04T10:46:52.206Z,984.49
2018-05-04T10:47:52.157Z,984.47
2018-05-04T10:48:52.107Z,984.53
2018-05-04T10:49:52.058Z,984.51
2018-05-04T10:50:52.008Z,984.55
2018-05-04T10:51:51.963Z,984.52
2018-05-04T10:52:51.952Z,984.54
2018-05-04T10:53:51.859Z,984.57
2018-05-04T10:54:51.814Z,984.59
2018-05-04T10:55:51.758Z,984.58
2018-05-04T10:56:51.711Z,984.54
2018-05-04T10:57:51.658Z,984.55
2018-05-04T10:58:51.615Z,984.55
2018-05-04T10:59:51.561Z,984.56
2018-05-04T11:00:51.510Z,984.57
2018-05-04T11:01:51.460Z,984.53
2018-05-04T11:02:51.411Z,984.56
2018-05-04T11:03:51.362Z,984.51
2018-05-04T11:04:51.314Z,984.53
2018-05-04T11:05:51.265Z,984.49
2018-05-04T11:06:51.215Z,984.57
2018-05-04T11:07:51.164Z,984.56
2018-05-04T11:08:51.111Z,984.58
2018-05-04T11:09:51.063Z,984.51
2018-05-04T11:10:51.013Z,984.48
2018-05-04T11:11:51.012Z,984.55
2018-05-04T11:12:50.915Z,984.55
2018-05-04T11:13:50.865Z,984.56
2018-05-04T11:14:50.816Z,984.53
2018-05-04T11:15:50.766Z,984.53
2018-05-04T11:16:50.717Z,984.51
2018-05-04T11:17:50.666Z,984.46
2018-05-04T11:18:50.617Z,984.51
2018-05-04T11:19:50.570Z,984.50
2018-05-04T11:20:50.515Z,984.47
2018-05-04T11:21:50.467Z,984.42
2018-05-04T11:22:50.419Z,984.41
2018-05-04T11:23:50.372Z,984.42
2018-05-04T11:24:50.319Z,984.40
2018-05-04T11:25:50.270Z,984.42
2018-05-04T11:26:50.219Z,984.42
2018-05-04T11:27:50.171Z,984.35
2018-05-04T11:28:50.121Z,984.33
2018-05-04T11:29:50.070Z,984.34
2018-05-04T11:30:50.023Z,984.29
2018-05-04T11:31:49.974Z,984.30
2018-05-04T11:32:49.921Z,984.29
2018-05-04T11:33:49.876Z,984.31
2018-05-04T11:34:49.823Z,984.29
2018-05-04T11:35:49.775Z,984.28
2018-05-04T11:36:49.724Z,984.30
2018-05-04T11:37:49.679Z,984.32
2018-05-04T11:38:49.706Z,984.33
2018-05-04T11:39:49.575Z,984.34
2018-05-04T11:40:49.529Z,984.33
2018-05-04T11:41:49.479Z,984.34
2018-05-04T11:42:49.428Z,984.34
2018-05-04T11:43:49.380Z,984.23
2018-05-04T11:44:49.331Z,984.26
2018-05-04T11:45:49.281Z,984.26
2018-05-04T11:46:49.233Z,984.28
2018-05-04T11:47:49.183Z,984.28
2018-05-04T11:48:49.134Z,984.25
2018-05-04T11:49:49.086Z,984.31
2018-05-04T11:50:49.037Z,984.29
2018-05-04T11:51:48.987Z,984.29
2018-05-04T11:52:48.938Z,984.22
2018-05-04T11:53:48.888Z,984.21
2018-05-04T11:54:48.840Z,984.29
2018-05-04T11:55:48.818Z,984.34
2018-05-04T11:56:48.750Z,984.31
2018-05-04T11:57:48.694Z,984.34
2018-05-04T11:58:48.645Z,984.38
2018-05-04T11:59:48.595Z,984.36
2018-05-04T12:00:48.545Z,984.34
2018-05-04T12:01:48.497Z,984.35
2018-05-04T12:02:48.449Z,984.29
2018-05-04T12:03:48.398Z,984.34
2018-05-04T12:04:48.435Z,984.33
2018-05-04T12:05:48.302Z,984.31
2018-05-04T12:06:48.251Z,984.29
2018-05-04T12:07:48.203Z,984.28
2018-05-04T12:08:48.153Z,984.32
2018-05-04T12:09:48.106Z,984.27
2018-05-04T12:10:48.122Z,984.26
2018-05-04T12:11:48.010Z,984.30
2018-05-04T12:12:47.960Z,984.30
2018-05-04T12:13:47.913Z,984.32
2018-05-04T12:14:47.862Z,984.41
2018-05-04T12:15:47.816Z,984.37
2018-05-04T12:16:47.765Z,984.34
2018-05-04T12:17:47.718Z,984.32
2018-05-04T12:18:47.670Z,984.32
2018-05-04T12:19:47.621Z,984.31
2018-05-04T12:20:47.571Z,984.23
2018-05-04T12:21:47.527Z,984.27
2018-05-04T12:22:47.554Z,984.32
2018-05-04T12:23:47.427Z,984.25
2018-05-04T12:24:47.380Z,984.30
2018-05-04T12:25:47.331Z,984.31
2018-05-04T12:26:47.281Z,984.31
2018-05-04T12:27:47.234Z,984.29